sensor_id;sensor_type;location;lat;lon;timestamp;temperature;humidity
37956;DHT22;23776;51.592;7.180;2023-03-13T00:01:28;11.10;1.00
37956;DHT22;23776;51.592;7.180;2023-03-13T00:03:54;11.20;4.60
37956;DHT22;23776;51.592;7.180;2023-03-13T00:06:22;11.20;29.10
37956;DHT22;23776;51.592;7.180;2023-03-13T00:08:48;11.20;90.50
37956;DHT22;23776;51.592;7.180;2023-03-13T00:11:14;11.20;99.90
37956;DHT22;23776;51.592;7.180;2023-03-13T00:13:41;11.30;99.90
37956;DHT22;23776;51.592;7.180;2023-03-13T00:16:12;11.20;99.90
37956;DHT22;23776;51.592;7.180;2023-03-13T00:18:40;11.20;99.90
37956;DHT22;23776;51.592;7.180;2023-03-13T00:21:09;11.30;99.90
37956;DHT22;23776;51.592;7.180;2023-03-13T00:23:36;12.10;99.90
37956;DHT22;23776;51.592;7.180;2023-03-13T00:26:08;11.20;1.00
37956;DHT22;23776;51.592;7.180;2023-03-13T00:28:35;11.20;52.20
37956;DHT22;23776;51.592;7.180;2023-03-13T00:31:02;11.30;99.90
37956;DHT22;23776;51.592;7.180;2023-03-13T00:33:31;11.20;1.00
37956;DHT22;23776;51.592;7.180;2023-03-13T00:36:01;11.10;1.00
37956;DHT22;23776;51.592;7.180;2023-03-13T00:38:27;11.10;41.20
37956;DHT22;23776;51.592;7.180;2023-03-13T00:43:29;11.10;99.90
37956;DHT22;23776;51.592;7.180;2023-03-13T00:45:55;10.90;99.90
37956;DHT22;23776;51.592;7.180;2023-03-13T00:48:21;10.90;99.90
37956;DHT22;23776;51.592;7.180;2023-03-13T00:50:46;10.90;1.00
37956;DHT22;23776;51.592;7.180;2023-03-13T00:53:12;10.90;1.00
37956;DHT22;23776;51.592;7.180;2023-03-13T00:55:38;10.80;1.00
37956;DHT22;23776;51.592;7.180;2023-03-13T00:58:03;10.80;1.00
37956;DHT22;23776;51.592;7.180;2023-03-13T01:00:29;10.70;1.00
37956;DHT22;23776;51.592;7.180;2023-03-13T01:02:54;10.70;1.00
37956;DHT22;23776;51.592;7.180;2023-03-13T01:05:20;10.60;1.00
37956;DHT22;23776;51.592;7.180;2023-03-13T01:07:46;10.60;1.00
37956;DHT22;23776;51.592;7.180;2023-03-13T01:10:11;10.50;1.00
37956;DHT22;23776;51.592;7.180;2023-03-13T01:12:37;10.50;1.00
37956;DHT22;23776;51.592;7.180;2023-03-13T01:15:03;10.50;1.00
37956;DHT22;23776;51.592;7.180;2023-03-13T01:17:28;10.50;1.00
37956;DHT22;23776;51.592;7.180;2023-03-13T01:19:56;10.40;1.00
37956;DHT22;23776;51.592;7.180;2023-03-13T01:22:21;10.40;1.00
37956;DHT22;23776;51.592;7.180;2023-03-13T01:24:47;10.50;1.00
37956;DHT22;23776;51.592;7.180;2023-03-13T01:27:17;10.50;1.00
37956;DHT22;23776;51.592;7.180;2023-03-13T01:29:43;10.50;1.00
37956;DHT22;23776;51.592;7.180;2023-03-13T01:32:09;10.50;1.00
37956;DHT22;23776;51.592;7.180;2023-03-13T01:34:34;10.50;1.00
37956;DHT22;23776;51.592;7.180;2023-03-13T01:37:00;10.50;1.00
37956;DHT22;23776;51.592;7.180;2023-03-13T01:39:26;10.50;1.00
37956;DHT22;23776;51.592;7.180;2023-03-13T01:41:51;10.50;3.40
37956;DHT22;23776;51.592;7.180;2023-03-13T01:44:23;10.30;23.70
37956;DHT22;23776;51.592;7.180;2023-03-13T01:46:49;10.30;31.90
37956;DHT22;23776;51.592;7.180;2023-03-13T01:49:18;10.30;40.80
37956;DHT22;23776;51.592;7.180;2023-03-13T01:52:07;10.20;49.20
37956;DHT22;23776;51.592;7.180;2023-03-13T01:54:39;10.10;62.00
37956;DHT22;23776;51.592;7.180;2023-03-13T01:57:12;10.10;73.20
37956;DHT22;23776;51.592;7.180;2023-03-13T01:59:45;10.00;77.90
37956;DHT22;23776;51.592;7.180;2023-03-13T02:02:12;9.90;81.90
37956;DHT22;23776;51.592;7.180;2023-03-13T02:04:43;9.90;83.50
37956;DHT22;23776;51.592;7.180;2023-03-13T02:07:13;10.00;85.40
37956;DHT22;23776;51.592;7.180;2023-03-13T02:09:41;9.90;87.50
37956;DHT22;23776;51.592;7.180;2023-03-13T02:12:14;9.80;89.60
37956;DHT22;23776;51.592;7.180;2023-03-13T02:14:43;9.80;90.80
37956;DHT22;23776;51.592;7.180;2023-03-13T02:17:10;9.80;91.20
37956;DHT22;23776;51.592;7.180;2023-03-13T02:19:42;9.80;92.00
37956;DHT22;23776;51.592;7.180;2023-03-13T02:27:15;9.70;94.00
37956;DHT22;23776;51.592;7.180;2023-03-13T02:29:41;9.70;94.50
37956;DHT22;23776;51.592;7.180;2023-03-13T02:32:07;9.70;94.80
37956;DHT22;23776;51.592;7.180;2023-03-13T02:34:34;9.70;95.30
37956;DHT22;23776;51.592;7.180;2023-03-13T02:37:03;10.20;95.60
37956;DHT22;23776;51.592;7.180;2023-03-13T02:39:31;9.70;96.10
37956;DHT22;23776;51.592;7.180;2023-03-13T02:41:59;9.70;96.60
37956;DHT22;23776;51.592;7.180;2023-03-13T02:44:26;9.70;96.60
37956;DHT22;23776;51.592;7.180;2023-03-13T02:46:52;9.80;96.70
37956;DHT22;23776;51.592;7.180;2023-03-13T02:51:45;9.80;97.20
37956;DHT22;23776;51.592;7.180;2023-03-13T02:54:18;9.80;97.10
37956;DHT22;23776;51.592;7.180;2023-03-13T02:56:50;9.80;97.50
37956;DHT22;23776;51.592;7.180;2023-03-13T02:59:16;9.80;98.00
37956;DHT22;23776;51.592;7.180;2023-03-13T03:01:41;9.80;97.60
37956;DHT22;23776;51.592;7.180;2023-03-13T03:04:07;9.80;97.70
37956;DHT22;23776;51.592;7.180;2023-03-13T03:06:33;9.80;97.60
37956;DHT22;23776;51.592;7.180;2023-03-13T03:08:58;9.90;97.70
37956;DHT22;23776;51.592;7.180;2023-03-13T03:11:24;9.90;97.30
37956;DHT22;23776;51.592;7.180;2023-03-13T03:13:49;9.90;97.30
37956;DHT22;23776;51.592;7.180;2023-03-13T03:16:15;9.90;97.40
37956;DHT22;23776;51.592;7.180;2023-03-13T03:18:42;10.00;97.30
37956;DHT22;23776;51.592;7.180;2023-03-13T03:21:08;10.00;97.10
37956;DHT22;23776;51.592;7.180;2023-03-13T03:23:35;10.10;96.70
37956;DHT22;23776;51.592;7.180;2023-03-13T03:26:02;10.10;96.60
37956;DHT22;23776;51.592;7.180;2023-03-13T03:28:28;10.10;96.70
37956;DHT22;23776;51.592;7.180;2023-03-13T03:30:54;10.20;96.80
37956;DHT22;23776;51.592;7.180;2023-03-13T03:33:21;10.20;96.10
37956;DHT22;23776;51.592;7.180;2023-03-13T03:35:47;10.20;96.30
37956;DHT22;23776;51.592;7.180;2023-03-13T03:38:13;10.30;96.50
37956;DHT22;23776;51.592;7.180;2023-03-13T03:40:39;10.30;96.90
37956;DHT22;23776;51.592;7.180;2023-03-13T03:43:04;10.30;96.90
37956;DHT22;23776;51.592;7.180;2023-03-13T03:45:30;10.30;96.70
37956;DHT22;23776;51.592;7.180;2023-03-13T03:47:55;10.30;96.80
37956;DHT22;23776;51.592;7.180;2023-03-13T03:50:24;10.30;97.00
37956;DHT22;23776;51.592;7.180;2023-03-13T03:52:50;10.40;97.00
37956;DHT22;23776;51.592;7.180;2023-03-13T03:55:16;10.40;97.10
37956;DHT22;23776;51.592;7.180;2023-03-13T03:57:42;10.40;96.80
37956;DHT22;23776;51.592;7.180;2023-03-13T04:00:08;10.40;97.10
37956;DHT22;23776;51.592;7.180;2023-03-13T04:02:36;10.70;97.10
37956;DHT22;23776;51.592;7.180;2023-03-13T04:05:02;10.40;97.10
37956;DHT22;23776;51.592;7.180;2023-03-13T04:07:28;10.50;97.40
37956;DHT22;23776;51.592;7.180;2023-03-13T04:09:54;10.50;97.50
37956;DHT22;23776;51.592;7.180;2023-03-13T04:12:19;10.60;97.70
37956;DHT22;23776;51.592;7.180;2023-03-13T04:14:45;10.50;97.90
37956;DHT22;23776;51.592;7.180;2023-03-13T04:17:11;10.60;97.90
37956;DHT22;23776;51.592;7.180;2023-03-13T04:19:36;10.60;98.50
37956;DHT22;23776;51.592;7.180;2023-03-13T04:22:02;10.60;98.60
37956;DHT22;23776;51.592;7.180;2023-03-13T04:24:28;10.60;98.60
37956;DHT22;23776;51.592;7.180;2023-03-13T04:26:53;10.60;99.00
37956;DHT22;23776;51.592;7.180;2023-03-13T04:29:19;10.60;99.10
37956;DHT22;23776;51.592;7.180;2023-03-13T04:31:44;10.60;99.10
37956;DHT22;23776;51.592;7.180;2023-03-13T04:34:10;10.70;99.40
37956;DHT22;23776;51.592;7.180;2023-03-13T04:36:36;10.60;99.10
37956;DHT22;23776;51.592;7.180;2023-03-13T04:39:01;10.60;99.30
37956;DHT22;23776;51.592;7.180;2023-03-13T04:41:27;10.60;99.40
37956;DHT22;23776;51.592;7.180;2023-03-13T04:43:53;10.70;99.40
37956;DHT22;23776;51.592;7.180;2023-03-13T04:46:18;10.70;99.40
37956;DHT22;23776;51.592;7.180;2023-03-13T04:48:44;10.70;99.10
37956;DHT22;23776;51.592;7.180;2023-03-13T04:51:11;10.70;99.10
37956;DHT22;23776;51.592;7.180;2023-03-13T04:53:37;10.70;99.20
37956;DHT22;23776;51.592;7.180;2023-03-13T04:56:03;10.70;99.00
37956;DHT22;23776;51.592;7.180;2023-03-13T04:58:28;10.70;99.50
37956;DHT22;23776;51.592;7.180;2023-03-13T05:00:54;10.60;99.10
37956;DHT22;23776;51.592;7.180;2023-03-13T05:03:21;10.70;99.50
37956;DHT22;23776;51.592;7.180;2023-03-13T05:05:47;10.80;99.70
37956;DHT22;23776;51.592;7.180;2023-03-13T05:08:13;10.80;99.60
37956;DHT22;23776;51.592;7.180;2023-03-13T05:10:41;10.80;99.50
37956;DHT22;23776;51.592;7.180;2023-03-13T05:13:07;10.90;99.60
37956;DHT22;23776;51.592;7.180;2023-03-13T05:15:32;10.90;99.50
37956;DHT22;23776;51.592;7.180;2023-03-13T05:17:58;10.90;99.60
37956;DHT22;23776;51.592;7.180;2023-03-13T05:20:24;10.90;99.60
37956;DHT22;23776;51.592;7.180;2023-03-13T05:22:49;11.00;99.70
37956;DHT22;23776;51.592;7.180;2023-03-13T05:25:15;11.00;99.90
37956;DHT22;23776;51.592;7.180;2023-03-13T05:27:40;11.00;99.90
37956;DHT22;23776;51.592;7.180;2023-03-13T05:30:06;11.10;99.90
37956;DHT22;23776;51.592;7.180;2023-03-13T05:32:32;11.10;99.90
37956;DHT22;23776;51.592;7.180;2023-03-13T05:34:58;11.10;99.90
37956;DHT22;23776;51.592;7.180;2023-03-13T05:37:24;11.20;99.90
37956;DHT22;23776;51.592;7.180;2023-03-13T05:39:49;11.30;99.90
37956;DHT22;23776;51.592;7.180;2023-03-13T05:42:15;11.30;99.70
37956;DHT22;23776;51.592;7.180;2023-03-13T05:44:40;11.40;99.50
37956;DHT22;23776;51.592;7.180;2023-03-13T05:47:06;11.40;99.10
37956;DHT22;23776;51.592;7.180;2023-03-13T05:49:31;11.40;99.30
37956;DHT22;23776;51.592;7.180;2023-03-13T05:51:57;11.50;99.30
37956;DHT22;23776;51.592;7.180;2023-03-13T05:54:22;11.60;99.30
37956;DHT22;23776;51.592;7.180;2023-03-13T05:56:48;11.60;99.20
37956;DHT22;23776;51.592;7.180;2023-03-13T05:59:15;11.70;98.70
37956;DHT22;23776;51.592;7.180;2023-03-13T06:01:40;11.90;97.90
37956;DHT22;23776;51.592;7.180;2023-03-13T06:04:06;11.80;97.40
37956;DHT22;23776;51.592;7.180;2023-03-13T06:06:32;11.90;96.90
37956;DHT22;23776;51.592;7.180;2023-03-13T06:08:57;11.70;96.50
37956;DHT22;23776;51.592;7.180;2023-03-13T06:11:23;11.90;96.70
37956;DHT22;23776;51.592;7.180;2023-03-13T06:13:50;12.00;95.60
37956;DHT22;23776;51.592;7.180;2023-03-13T06:16:17;12.10;94.30
37956;DHT22;23776;51.592;7.180;2023-03-13T06:18:43;12.10;93.60
37956;DHT22;23776;51.592;7.180;2023-03-13T06:21:08;12.10;93.30
37956;DHT22;23776;51.592;7.180;2023-03-13T06:23:34;12.20;92.90
37956;DHT22;23776;51.592;7.180;2023-03-13T06:26:00;12.20;92.60
37956;DHT22;23776;51.592;7.180;2023-03-13T06:28:26;12.20;92.00
37956;DHT22;23776;51.592;7.180;2023-03-13T06:30:51;12.20;91.90
37956;DHT22;23776;51.592;7.180;2023-03-13T06:33:17;12.30;90.90
37956;DHT22;23776;51.592;7.180;2023-03-13T06:35:43;12.40;90.00
37956;DHT22;23776;51.592;7.180;2023-03-13T06:38:09;12.50;86.70
37956;DHT22;23776;51.592;7.180;2023-03-13T06:40:35;12.50;85.40
37956;DHT22;23776;51.592;7.180;2023-03-13T06:43:01;12.50;82.10
37956;DHT22;23776;51.592;7.180;2023-03-13T06:45:26;12.60;79.20
37956;DHT22;23776;51.592;7.180;2023-03-13T06:47:52;10.70;73.70
37956;DHT22;23776;51.592;7.180;2023-03-13T06:50:18;12.80;71.70
37956;DHT22;23776;51.592;7.180;2023-03-13T06:52:45;12.80;69.40
37956;DHT22;23776;51.592;7.180;2023-03-13T06:55:12;12.80;66.90
37956;DHT22;23776;51.592;7.180;2023-03-13T06:57:38;12.90;62.30
37956;DHT22;23776;51.592;7.180;2023-03-13T07:00:04;13.00;63.80
37956;DHT22;23776;51.592;7.180;2023-03-13T07:02:31;12.90;63.90
37956;DHT22;23776;51.592;7.180;2023-03-13T07:04:56;13.00;60.20
37956;DHT22;23776;51.592;7.180;2023-03-13T07:07:22;13.00;59.30
37956;DHT22;23776;51.592;7.180;2023-03-13T07:09:47;13.00;58.70
37956;DHT22;23776;51.592;7.180;2023-03-13T07:12:13;13.00;57.90
37956;DHT22;23776;51.592;7.180;2023-03-13T07:14:39;13.00;56.80
37956;DHT22;23776;51.592;7.180;2023-03-13T07:17:04;13.10;53.40
37956;DHT22;23776;51.592;7.180;2023-03-13T07:19:30;13.10;51.20
37956;DHT22;23776;51.592;7.180;2023-03-13T07:21:55;13.10;47.80
37956;DHT22;23776;51.592;7.180;2023-03-13T07:24:21;13.20;45.90
37956;DHT22;23776;51.592;7.180;2023-03-13T07:26:47;13.30;36.50
37956;DHT22;23776;51.592;7.180;2023-03-13T07:29:13;13.20;37.10
37956;DHT22;23776;51.592;7.180;2023-03-13T07:31:38;13.30;37.30
37956;DHT22;23776;51.592;7.180;2023-03-13T07:34:04;13.30;37.30
37956;DHT22;23776;51.592;7.180;2023-03-13T07:36:30;13.30;31.30
37956;DHT22;23776;51.592;7.180;2023-03-13T07:38:55;13.40;28.60
37956;DHT22;23776;51.592;7.180;2023-03-13T07:41:21;13.40;24.40
37956;DHT22;23776;51.592;7.180;2023-03-13T07:43:47;14.00;26.00
37956;DHT22;23776;51.592;7.180;2023-03-13T07:46:16;13.60;26.80
37956;DHT22;23776;51.592;7.180;2023-03-13T07:48:43;13.60;16.70
37956;DHT22;23776;51.592;7.180;2023-03-13T07:51:17;13.60;13.50
37956;DHT22;23776;51.592;7.180;2023-03-13T07:53:44;13.60;17.60
37956;DHT22;23776;51.592;7.180;2023-03-13T07:56:13;13.60;10.20
37956;DHT22;23776;51.592;7.180;2023-03-13T07:58:39;13.70;11.80
37956;DHT22;23776;51.592;7.180;2023-03-13T08:01:19;13.70;1.50
37956;DHT22;23776;51.592;7.180;2023-03-13T08:03:46;13.70;6.00
37956;DHT22;23776;51.592;7.180;2023-03-13T08:06:17;13.70;5.80
37956;DHT22;23776;51.592;7.180;2023-03-13T08:08:43;13.70;1.00
37956;DHT22;23776;51.592;7.180;2023-03-13T08:11:11;13.80;1.00
37956;DHT22;23776;51.592;7.180;2023-03-13T08:13:37;13.80;1.00
37956;DHT22;23776;51.592;7.180;2023-03-13T08:18:28;13.80;1.00
37956;DHT22;23776;51.592;7.180;2023-03-13T08:20:54;13.80;1.00
37956;DHT22;23776;51.592;7.180;2023-03-13T08:23:19;13.90;1.00
37956;DHT22;23776;51.592;7.180;2023-03-13T08:25:45;13.90;1.00
37956;DHT22;23776;51.592;7.180;2023-03-13T08:28:10;13.80;1.00
37956;DHT22;23776;51.592;7.180;2023-03-13T08:30:36;13.90;1.00
37956;DHT22;23776;51.592;7.180;2023-03-13T08:33:02;13.90;1.00
37956;DHT22;23776;51.592;7.180;2023-03-13T08:35:28;13.90;1.00
37956;DHT22;23776;51.592;7.180;2023-03-13T08:37:54;13.90;1.00
37956;DHT22;23776;51.592;7.180;2023-03-13T08:40:19;14.00;1.00
37956;DHT22;23776;51.592;7.180;2023-03-13T08:42:45;14.00;1.00
37956;DHT22;23776;51.592;7.180;2023-03-13T08:45:11;14.00;1.00
37956;DHT22;23776;51.592;7.180;2023-03-13T08:47:36;14.00;1.00
37956;DHT22;23776;51.592;7.180;2023-03-13T08:50:02;14.00;1.00
37956;DHT22;23776;51.592;7.180;2023-03-13T08:52:28;14.10;1.00
37956;DHT22;23776;51.592;7.180;2023-03-13T08:54:54;14.10;1.00
37956;DHT22;23776;51.592;7.180;2023-03-13T08:57:19;14.00;1.00
37956;DHT22;23776;51.592;7.180;2023-03-13T08:59:45;14.20;1.00
37956;DHT22;23776;51.592;7.180;2023-03-13T09:02:10;14.10;1.00
37956;DHT22;23776;51.592;7.180;2023-03-13T09:04:36;14.20;1.00
37956;DHT22;23776;51.592;7.180;2023-03-13T09:07:02;14.20;1.00
37956;DHT22;23776;51.592;7.180;2023-03-13T09:09:27;14.20;1.00
37956;DHT22;23776;51.592;7.180;2023-03-13T09:11:53;14.30;1.00
37956;DHT22;23776;51.592;7.180;2023-03-13T09:14:18;14.50;1.00
37956;DHT22;23776;51.592;7.180;2023-03-13T09:16:44;14.60;1.00
37956;DHT22;23776;51.592;7.180;2023-03-13T09:19:10;14.70;1.00
37956;DHT22;23776;51.592;7.180;2023-03-13T09:21:37;14.80;1.00
37956;DHT22;23776;51.592;7.180;2023-03-13T09:24:03;14.90;1.00
37956;DHT22;23776;51.592;7.180;2023-03-13T09:26:29;14.90;1.00
37956;DHT22;23776;51.592;7.180;2023-03-13T09:28:55;15.10;1.00
37956;DHT22;23776;51.592;7.180;2023-03-13T09:31:23;15.20;1.00
37956;DHT22;23776;51.592;7.180;2023-03-13T09:33:50;15.20;1.00
37956;DHT22;23776;51.592;7.180;2023-03-13T09:36:16;15.20;1.00
37956;DHT22;23776;51.592;7.180;2023-03-13T09:38:43;15.30;1.00
37956;DHT22;23776;51.592;7.180;2023-03-13T09:43:43;15.40;1.00
37956;DHT22;23776;51.592;7.180;2023-03-13T09:46:20;15.40;1.00
37956;DHT22;23776;51.592;7.180;2023-03-13T09:48:58;15.40;1.00
37956;DHT22;23776;51.592;7.180;2023-03-13T09:51:26;15.40;1.00
37956;DHT22;23776;51.592;7.180;2023-03-13T09:54:18;15.50;1.00
37956;DHT22;23776;51.592;7.180;2023-03-13T09:56:49;15.80;1.00
37956;DHT22;23776;51.592;7.180;2023-03-13T09:59:18;16.00;99.90
37956;DHT22;23776;51.592;7.180;2023-03-13T10:01:46;15.90;99.90
37956;DHT22;23776;51.592;7.180;2023-03-13T10:06:48;15.70;1.00
37956;DHT22;23776;51.592;7.180;2023-03-13T10:09:18;15.70;1.00
37956;DHT22;23776;51.592;7.180;2023-03-13T10:11:55;15.70;1.00
37956;DHT22;23776;51.592;7.180;2023-03-13T10:20:09;15.70;1.00
37956;DHT22;23776;51.592;7.180;2023-03-13T10:22:39;15.80;1.00
37956;DHT22;23776;51.592;7.180;2023-03-13T10:25:34;15.80;1.00
37956;DHT22;23776;51.592;7.180;2023-03-13T10:28:00;15.90;1.00
37956;DHT22;23776;51.592;7.180;2023-03-13T10:30:35;15.90;1.00
37956;DHT22;23776;51.592;7.180;2023-03-13T10:35:41;15.80;1.00
37956;DHT22;23776;51.592;7.180;2023-03-13T10:38:18;15.90;1.00
37956;DHT22;23776;51.592;7.180;2023-03-13T10:40:59;15.90;1.00
37956;DHT22;23776;51.592;7.180;2023-03-13T10:43:26;16.10;1.00
37956;DHT22;23776;51.592;7.180;2023-03-13T10:45:52;16.20;99.90
37956;DHT22;23776;51.592;7.180;2023-03-13T10:48:20;16.30;99.90
37956;DHT22;23776;51.592;7.180;2023-03-13T10:50:48;16.40;99.90
37956;DHT22;23776;51.592;7.180;2023-03-13T10:55:59;16.40;99.90
37956;DHT22;23776;51.592;7.180;2023-03-13T10:58:33;16.20;99.90
37956;DHT22;23776;51.592;7.180;2023-03-13T11:03:41;16.70;99.90
37956;DHT22;23776;51.592;7.180;2023-03-13T11:06:23;16.80;99.90
37956;DHT22;23776;51.592;7.180;2023-03-13T11:09:04;16.90;99.90
37956;DHT22;23776;51.592;7.180;2023-03-13T11:11:42;17.00;73.20
37956;DHT22;23776;51.592;7.180;2023-03-13T11:14:13;17.00;13.60
37956;DHT22;23776;51.592;7.180;2023-03-13T11:28:03;16.90;1.00
37956;DHT22;23776;51.592;7.180;2023-03-13T11:36:01;17.10;99.90
37956;DHT22;23776;51.592;7.180;2023-03-13T11:38:44;17.30;99.90
37956;DHT22;23776;51.592;7.180;2023-03-13T11:55:12;18.00;99.90
37956;DHT22;23776;51.592;7.180;2023-03-13T12:03:05;17.90;99.90
37956;DHT22;23776;51.592;7.180;2023-03-13T12:05:44;17.80;99.90
37956;DHT22;23776;51.592;7.180;2023-03-13T12:08:35;17.90;99.90
37956;DHT22;23776;51.592;7.180;2023-03-13T12:11:17;18.10;99.90
37956;DHT22;23776;51.592;7.180;2023-03-13T12:16:47;18.00;35.90
37956;DHT22;23776;51.592;7.180;2023-03-13T12:19:22;17.80;1.00
37956;DHT22;23776;51.592;7.180;2023-03-13T12:21:53;17.60;1.00
37956;DHT22;23776;51.592;7.180;2023-03-13T12:24:38;17.50;1.00
37956;DHT22;23776;51.592;7.180;2023-03-13T12:27:15;17.50;1.00
37956;DHT22;23776;51.592;7.180;2023-03-13T12:32:55;17.40;9.00
37956;DHT22;23776;51.592;7.180;2023-03-13T12:35:28;17.40;1.00
37956;DHT22;23776;51.592;7.180;2023-03-13T12:38:23;17.10;1.00
37956;DHT22;23776;51.592;7.180;2023-03-13T12:41:23;17.50;1.00
37956;DHT22;23776;51.592;7.180;2023-03-13T12:43:52;17.50;1.00
37956;DHT22;23776;51.592;7.180;2023-03-13T12:54:43;17.40;1.00
37956;DHT22;23776;51.592;7.180;2023-03-13T13:00:03;17.30;1.00
37956;DHT22;23776;51.592;7.180;2023-03-13T13:02:32;17.30;1.00
37956;DHT22;23776;51.592;7.180;2023-03-13T13:05:01;17.20;1.00
37956;DHT22;23776;51.592;7.180;2023-03-13T13:07:29;17.30;6.00
37956;DHT22;23776;51.592;7.180;2023-03-13T13:12:37;17.10;69.10
37956;DHT22;23776;51.592;7.180;2023-03-13T13:15:25;17.00;99.90
37956;DHT22;23776;51.592;7.180;2023-03-13T13:21:17;17.00;99.90
37956;DHT22;23776;51.592;7.180;2023-03-13T13:23:38;17.00;99.90
37956;DHT22;23776;51.592;7.180;2023-03-13T13:28:52;17.10;67.60
37956;DHT22;23776;51.592;7.180;2023-03-13T13:37:00;17.20;1.00
37956;DHT22;23776;51.592;7.180;2023-03-13T13:39:42;17.30;1.00
37956;DHT22;23776;51.592;7.180;2023-03-13T13:45:00;17.40;99.90
37956;DHT22;23776;51.592;7.180;2023-03-13T13:47:28;17.40;99.90
37956;DHT22;23776;51.592;7.180;2023-03-13T13:49:56;17.50;99.90
37956;DHT22;23776;51.592;7.180;2023-03-13T13:52:39;17.50;99.90
37956;DHT22;23776;51.592;7.180;2023-03-13T13:58:05;17.40;99.90
37956;DHT22;23776;51.592;7.180;2023-03-13T14:00:39;17.30;99.90
37956;DHT22;23776;51.592;7.180;2023-03-13T14:03:22;17.20;99.90
37956;DHT22;23776;51.592;7.180;2023-03-13T14:05:53;17.10;1.00
37956;DHT22;23776;51.592;7.180;2023-03-13T14:08:32;17.10;1.00
37956;DHT22;23776;51.592;7.180;2023-03-13T14:11:07;17.10;1.00
37956;DHT22;23776;51.592;7.180;2023-03-13T14:13:35;17.10;1.00
37956;DHT22;23776;51.592;7.180;2023-03-13T14:16:23;17.10;99.90
37956;DHT22;23776;51.592;7.180;2023-03-13T14:18:49;17.10;1.00
37956;DHT22;23776;51.592;7.180;2023-03-13T14:21:23;17.10;1.00
37956;DHT22;23776;51.592;7.180;2023-03-13T14:23:49;17.10;1.00
37956;DHT22;23776;51.592;7.180;2023-03-13T14:26:16;17.10;1.00
37956;DHT22;23776;51.592;7.180;2023-03-13T14:28:54;17.10;1.00
37956;DHT22;23776;51.592;7.180;2023-03-13T14:31:37;17.00;24.50
37956;DHT22;23776;51.592;7.180;2023-03-13T14:34:08;16.90;40.50
37956;DHT22;23776;51.592;7.180;2023-03-13T14:39:35;17.00;1.00
37956;DHT22;23776;51.592;7.180;2023-03-13T14:42:10;17.00;49.20
37956;DHT22;23776;51.592;7.180;2023-03-13T14:44:36;17.00;12.00
37956;DHT22;23776;51.592;7.180;2023-03-13T14:47:07;17.00;50.70
37956;DHT22;23776;51.592;7.180;2023-03-13T14:49:34;17.00;79.50
37956;DHT22;23776;51.592;7.180;2023-03-13T14:52:04;17.00;99.90
37956;DHT22;23776;51.592;7.180;2023-03-13T14:54:35;17.10;89.40
37956;DHT22;23776;51.592;7.180;2023-03-13T14:57:11;17.20;78.10
37956;DHT22;23776;51.592;7.180;2023-03-13T14:59:38;17.20;93.50
37956;DHT22;23776;51.592;7.180;2023-03-13T15:02:26;17.20;74.70
37956;DHT22;23776;51.592;7.180;2023-03-13T15:04:55;17.20;91.40
37956;DHT22;23776;51.592;7.180;2023-03-13T15:07:25;17.10;99.90
37956;DHT22;23776;51.592;7.180;2023-03-13T15:09:51;17.10;99.90
37956;DHT22;23776;51.592;7.180;2023-03-13T15:12:20;17.10;99.90
37956;DHT22;23776;51.592;7.180;2023-03-13T15:14:48;17.00;99.90
37956;DHT22;23776;51.592;7.180;2023-03-13T15:17:22;17.00;99.90
37956;DHT22;23776;51.592;7.180;2023-03-13T15:19:53;17.00;21.30
37956;DHT22;23776;51.592;7.180;2023-03-13T15:22:27;17.00;27.40
37956;DHT22;23776;51.592;7.180;2023-03-13T15:24:54;17.10;99.90
37956;DHT22;23776;51.592;7.180;2023-03-13T15:27:22;17.00;1.00
37956;DHT22;23776;51.592;7.180;2023-03-13T15:29:48;16.90;1.00
37956;DHT22;23776;51.592;7.180;2023-03-13T15:32:24;16.80;92.30
37956;DHT22;23776;51.592;7.180;2023-03-13T15:34:50;16.80;99.90
37956;DHT22;23776;51.592;7.180;2023-03-13T15:37:16;16.80;55.50
37956;DHT22;23776;51.592;7.180;2023-03-13T15:39:42;16.90;99.90
37956;DHT22;23776;51.592;7.180;2023-03-13T15:42:08;17.40;20.60
37956;DHT22;23776;51.592;7.180;2023-03-13T15:44:34;17.60;1.00
37956;DHT22;23776;51.592;7.180;2023-03-13T15:46:59;17.80;1.00
37956;DHT22;23776;51.592;7.180;2023-03-13T15:49:25;17.70;1.00
37956;DHT22;23776;51.592;7.180;2023-03-13T15:51:50;17.60;1.00
37956;DHT22;23776;51.592;7.180;2023-03-13T15:54:17;17.50;1.00
37956;DHT22;23776;51.592;7.180;2023-03-13T15:56:43;17.40;1.00
37956;DHT22;23776;51.592;7.180;2023-03-13T15:59:10;17.40;1.00
37956;DHT22;23776;51.592;7.180;2023-03-13T16:01:36;17.30;1.00
37956;DHT22;23776;51.592;7.180;2023-03-13T16:04:02;17.20;99.90
37956;DHT22;23776;51.592;7.180;2023-03-13T16:06:28;17.00;99.90
37956;DHT22;23776;51.592;7.180;2023-03-13T16:08:58;16.90;99.90
37956;DHT22;23776;51.592;7.180;2023-03-13T16:11:25;16.90;99.90
37956;DHT22;23776;51.592;7.180;2023-03-13T16:13:51;16.80;99.90
37956;DHT22;23776;51.592;7.180;2023-03-13T16:16:25;16.80;99.90
37956;DHT22;23776;51.592;7.180;2023-03-13T16:18:53;16.50;99.90
37956;DHT22;23776;51.592;7.180;2023-03-13T16:21:21;16.50;99.90
37956;DHT22;23776;51.592;7.180;2023-03-13T16:23:47;16.50;99.90
37956;DHT22;23776;51.592;7.180;2023-03-13T16:26:25;16.50;99.90
37956;DHT22;23776;51.592;7.180;2023-03-13T16:28:51;16.40;99.90
37956;DHT22;23776;51.592;7.180;2023-03-13T16:31:25;16.30;99.90
37956;DHT22;23776;51.592;7.180;2023-03-13T16:33:52;16.40;99.90
37956;DHT22;23776;51.592;7.180;2023-03-13T16:36:27;16.30;99.90
37956;DHT22;23776;51.592;7.180;2023-03-13T16:38:55;16.40;99.90
37956;DHT22;23776;51.592;7.180;2023-03-13T16:41:23;16.40;99.90
37956;DHT22;23776;51.592;7.180;2023-03-13T16:43:49;16.40;99.90
37956;DHT22;23776;51.592;7.180;2023-03-13T16:46:37;16.30;99.90
37956;DHT22;23776;51.592;7.180;2023-03-13T16:49:04;16.20;99.90
37956;DHT22;23776;51.592;7.180;2023-03-13T16:51:30;16.10;99.90
37956;DHT22;23776;51.592;7.180;2023-03-13T16:53:57;16.00;99.90
37956;DHT22;23776;51.592;7.180;2023-03-13T16:56:30;16.00;1.00
37956;DHT22;23776;51.592;7.180;2023-03-13T16:58:59;15.90;1.00
37956;DHT22;23776;51.592;7.180;2023-03-13T17:01:25;15.90;1.00
37956;DHT22;23776;51.592;7.180;2023-03-13T17:03:51;15.80;99.90
37956;DHT22;23776;51.592;7.180;2023-03-13T17:06:22;15.80;1.00
37956;DHT22;23776;51.592;7.180;2023-03-13T17:08:48;15.70;1.00
37956;DHT22;23776;51.592;7.180;2023-03-13T17:11:16;15.70;1.00
37956;DHT22;23776;51.592;7.180;2023-03-13T17:13:44;15.70;1.00
37956;DHT22;23776;51.592;7.180;2023-03-13T17:16:12;15.70;1.00
37956;DHT22;23776;51.592;7.180;2023-03-13T17:18:38;15.50;1.00
37956;DHT22;23776;51.592;7.180;2023-03-13T17:21:04;15.50;16.90
37956;DHT22;23776;51.592;7.180;2023-03-13T17:23:30;15.40;15.90
37956;DHT22;23776;51.592;7.180;2023-03-13T17:25:57;15.40;56.40
37956;DHT22;23776;51.592;7.180;2023-03-13T17:28:23;15.40;84.20
37956;DHT22;23776;51.592;7.180;2023-03-13T17:30:48;15.40;34.20
37956;DHT22;23776;51.592;7.180;2023-03-13T17:33:14;15.40;38.30